createdAt,value
2023-03-23T16:00:51.122Z,69.66
2023-03-23T16:06:03.510Z,70.32
2023-03-23T16:11:13.689Z,71.01
2023-03-23T16:16:26.590Z,70.80
2023-03-23T16:21:33.687Z,70.87
2023-03-23T16:26:42.590Z,71.44
2023-03-23T16:31:49.660Z,71.55
2023-03-23T16:36:56.598Z,71.94
2023-03-23T16:42:04.713Z,72.77
2023-03-23T16:47:11.247Z,73.46
2023-03-23T16:52:18.050Z,74.31
2023-03-23T16:57:26.680Z,74.36
2023-03-23T17:02:33.527Z,77.50
2023-03-23T17:07:41.267Z,77.84
2023-03-23T17:12:49.407Z,77.10
2023-03-23T17:17:56.746Z,77.24
2023-03-23T17:23:04.885Z,77.35
2023-03-23T17:28:14.001Z,77.72
2023-03-23T17:33:21.040Z,77.73
2023-03-23T17:38:28.139Z,78.31
2023-03-23T17:43:38.176Z,78.79
2023-03-23T17:48:46.515Z,80.14
2023-03-23T17:53:58.036Z,80.23
2023-03-23T17:59:08.804Z,80.62
2023-03-23T18:04:18.601Z,80.90
2023-03-23T18:09:30.829Z,81.66
2023-03-23T18:14:42.075Z,81.11
2023-03-23T18:19:50.307Z,80.88
2023-03-23T18:24:59.676Z,81.25
2023-03-23T18:30:13.143Z,81.62
2023-03-23T18:35:28.082Z,81.13
2023-03-23T18:40:38.754Z,80.57
2023-03-23T18:45:54.270Z,80.62
2023-03-23T18:51:10.095Z,80.98
2023-03-23T18:56:20.587Z,80.32
2023-03-23T19:01:32.190Z,79.65
2023-03-23T19:06:43.040Z,79.48
2023-03-23T19:11:53.555Z,79.30
2023-03-23T19:17:07.832Z,79.45
2023-03-23T19:22:17.752Z,80.00
2023-03-23T19:27:28.640Z,80.12
2023-03-23T19:32:40.880Z,80.34
2023-03-23T19:37:51.897Z,80.81
2023-03-23T19:43:05.463Z,81.22
2023-03-23T19:48:18.169Z,81.10
2023-03-23T19:53:39.289Z,80.84
2023-03-23T19:58:51.925Z,80.28
2023-03-23T20:04:07.701Z,79.84
2023-03-23T20:09:21.748Z,78.68
2023-03-23T20:14:32.243Z,78.11
2023-03-23T20:19:45.190Z,77.36
2023-03-23T20:24:54.861Z,77.44
2023-03-23T20:30:06.236Z,77.63
2023-03-23T20:35:23.357Z,78.05
2023-03-23T20:40:32.482Z,77.53
2023-03-23T20:45:44.924Z,77.30
2023-03-23T20:50:55.379Z,77.26
2023-03-23T20:56:07.628Z,77.44
2023-03-23T21:01:22.440Z,77.26
2023-03-23T21:06:34.388Z,77.00
2023-03-23T21:11:43.076Z,77.07
2023-03-23T21:16:52.494Z,77.28
2023-03-23T21:22:02.894Z,77.22
2023-03-23T21:27:09.523Z,76.71
2023-03-23T21:32:16.958Z,76.50
2023-03-23T21:37:25.005Z,76.25
2023-03-23T21:42:31.836Z,76.43
2023-03-23T21:47:39.665Z,76.40
2023-03-23T21:52:51.248Z,76.97
2023-03-23T21:57:58.412Z,76.99
2023-03-23T22:03:05.448Z,77.39
2023-03-23T22:08:14.944Z,77.67
2023-03-23T22:13:21.560Z,77.41
2023-03-23T22:18:28.624Z,78.22
2023-03-23T22:23:37.121Z,78.54
2023-03-23T22:28:43.870Z,78.70
2023-03-23T22:33:54.446Z,79.37
2023-03-23T22:39:04.011Z,79.18
2023-03-23T22:44:15.614Z,79.23
2023-03-23T22:49:22.261Z,79.73
2023-03-23T22:54:31.076Z,79.10
2023-03-23T22:59:37.644Z,78.89
2023-03-23T23:04:44.384Z,78.91
2023-03-23T23:09:52.455Z,78.61
2023-03-23T23:14:59.460Z,79.00
2023-03-23T23:20:07.199Z,79.11
2023-03-23T23:25:15.014Z,79.24
2023-03-23T23:30:21.586Z,79.28
2023-03-23T23:35:28.784Z,78.91
2023-03-23T23:40:36.769Z,79.39
2023-03-23T23:45:43.594Z,79.45
2023-03-23T23:50:52.535Z,79.15
2023-03-23T23:56:03.955Z,79.05
